Time;durP1;ratioP1;P1;durP2;ratioP2;P2;SDS_P1;SDS_P2;PMS_P1;PMS_P2;Temp;Humidity;BMP_temperature;BMP_pressure;BME280_temperature;BME280_humidity;BME280_pressure;Samples;Min_cycle;Max_cycle;Signal;HPM_P1;HPM_P2
2024/01/17 00:00:07;;;;;;;7.50;5.80;;;;;;;6.10;46.02;101753.39;106869;1260;25352;-51
2024/01/17 00:02:43;;;;;;;8.20;6.30;;;;;;;6.09;45.90;101754.23;106756;1261;25328;-51
2024/01/17 00:05:10;;;;;;;6.70;5.50;;;;;;;6.07;45.87;101755.08;106056;1262;1003788;-53
2024/01/17 00:07:37;;;;;;;5.50;4.70;;;;;;;6.02;45.90;101754.67;106734;1259;25370;-53
2024/01/17 00:10:05;;;;;;;8.80;5.50;;;;;;;5.98;46.23;101758.73;106006;1257;1015525;-52
2024/01/17 00:12:33;;;;;;;5.90;4.60;;;;;;;5.98;46.54;101762.70;106571;1261;25335;-52
2024/01/17 00:15:00;;;;;;;5.90;4.70;;;;;;;6.01;46.42;101765.67;106761;1256;25336;-52
2024/01/17 00:17:27;;;;;;;6.30;4.90;;;;;;;6.02;46.60;101765.52;106901;1260;25347;-50
2024/01/17 00:19:55;;;;;;;6.20;5.20;;;;;;;5.98;46.74;101765.63;106739;1260;25325;-52
2024/01/17 00:22:22;;;;;;;6.10;5.50;;;;;;;5.92;46.87;101770.20;106789;1259;25348;-52
2024/01/17 00:24:51;;;;;;;5.80;4.90;;;;;;;5.89;46.94;101776.02;106801;1261;25412;-51
2024/01/17 00:27:18;;;;;;;5.70;5.10;;;;;;;5.87;46.95;101777.02;106037;1260;1003796;-51
2024/01/17 00:29:45;;;;;;;6.20;4.80;;;;;;;5.87;46.96;101781.51;106679;1261;25401;-51
2024/01/17 00:32:13;;;;;;;7.60;5.30;;;;;;;5.87;47.08;101777.21;105998;1261;1003311;-51
2024/01/17 00:34:40;;;;;;;6.90;5.20;;;;;;;5.85;47.02;101780.44;105830;1259;1003680;-51
2024/01/17 00:37:09;;;;;;;6.70;4.70;;;;;;;5.83;47.02;101789.86;106796;1272;25532;-51
2024/01/17 00:39:36;;;;;;;5.70;4.80;;;;;;;5.81;46.95;101793.96;106726;1265;22530;-52
2024/01/17 00:42:03;;;;;;;6.20;5.00;;;;;;;5.79;46.90;101795.12;106322;1279;25334;-51
2024/01/17 00:44:30;;;;;;;10.30;7.00;;;;;;;5.76;46.97;101796.98;106009;1272;1003528;-51
2024/01/17 00:46:57;;;;;;;9.40;5.60;;;;;;;5.72;46.97;101796.40;106773;1261;25477;-51
2024/01/17 00:49:25;;;;;;;7.30;5.70;;;;;;;5.69;47.00;101795.50;106418;1263;25435;-51
2024/01/17 00:51:52;;;;;;;6.40;5.00;;;;;;;5.68;47.05;101795.66;106781;1259;25335;-50
2024/01/17 00:54:19;;;;;;;8.10;6.10;;;;;;;5.68;47.11;101795.84;106834;1260;25488;-51
2024/01/17 00:56:46;;;;;;;10.00;7.40;;;;;;;5.73;47.05;101794.16;106039;1260;1003080;-51
2024/01/17 00:59:13;;;;;;;8.40;5.90;;;;;;;5.77;46.92;101796.48;106764;1269;25468;-51
2024/01/17 01:01:41;;;;;;;8.90;6.50;;;;;;;5.81;46.70;101790.52;106740;1259;25376;-52
2024/01/17 01:04:08;;;;;;;8.20;6.20;;;;;;;5.83;46.68;101791.08;106721;1273;25415;-51
2024/01/17 01:06:36;;;;;;;6.70;5.50;;;;;;;5.86;46.60;101789.07;106473;1266;22806;-52
2024/01/17 01:09:03;;;;;;;5.30;4.80;;;;;;;5.88;46.49;101788.41;106763;1261;25409;-52
2024/01/17 01:11:32;;;;;;;6.10;5.00;;;;;;;5.89;46.57;101789.11;106896;1269;24242;-51
2024/01/17 01:14:01;;;;;;;6.70;4.90;;;;;;;5.91;46.52;101793.62;106644;1262;22656;-53
2024/01/17 01:16:28;;;;;;;6.30;4.30;;;;;;;5.94;46.49;101791.41;106759;1273;22523;-53
2024/01/17 01:18:55;;;;;;;5.80;4.80;;;;;;;5.98;46.47;101795.95;106796;1259;25444;-51
2024/01/17 01:21:23;;;;;;;5.30;4.30;;;;;;;6.02;46.31;101799.62;106783;1260;25408;-52
2024/01/17 01:23:50;;;;;;;5.40;4.70;;;;;;;6.06;46.06;101802.08;106764;1261;25353;-52
2024/01/17 01:26:17;;;;;;;6.20;4.90;;;;;;;6.07;45.95;101796.06;106759;1261;25363;-52
2024/01/17 01:28:44;;;;;;;6.00;5.20;;;;;;;6.08;45.85;101796.08;106807;1256;25964;-52
2024/01/17 01:31:12;;;;;;;8.50;5.40;;;;;;;6.07;45.83;101792.45;106711;1259;24227;-52
2024/01/17 01:33:39;;;;;;;7.40;5.50;;;;;;;6.05;45.82;101796.73;106782;1261;25488;-52
2024/01/17 01:36:06;;;;;;;6.50;5.20;;;;;;;6.04;45.84;101798.44;106059;1259;1003160;-51
2024/01/17 01:38:34;;;;;;;6.30;5.40;;;;;;;6.04;45.95;101796.89;106493;1261;24361;-51
2024/01/17 01:41:01;;;;;;;5.80;5.00;;;;;;;6.05;46.15;101796.90;106475;1260;25335;-53
2024/01/17 01:43:29;;;;;;;6.00;5.20;;;;;;;6.05;46.20;101796.91;106789;1269;25406;-53
2024/01/17 01:45:59;;;;;;;5.80;4.70;;;;;;;6.07;46.13;101796.92;106688;1259;24255;-53
2024/01/17 01:48:26;;;;;;;6.30;5.20;;;;;;;6.07;46.10;101793.31;106753;1261;25328;-52
2024/01/17 01:50:53;;;;;;;6.20;5.50;;;;;;;6.07;46.04;101788.49;106741;1260;25485;-52
2024/01/17 01:53:20;;;;;;;8.30;6.00;;;;;;;6.07;46.20;101787.80;105925;1272;1003684;-53
2024/01/17 01:55:47;;;;;;;7.90;5.40;;;;;;;6.06;46.13;101790.03;105770;1260;1003095;-53
2024/01/17 01:58:14;;;;;;;7.40;4.90;;;;;;;6.04;46.26;101787.93;106534;1262;24192;-53
2024/01/17 02:00:41;;;;;;;7.50;6.00;;;;;;;6.04;46.49;101787.41;106398;1260;25335;-51
2024/01/17 02:03:10;;;;;;;6.70;5.60;;;;;;;6.04;46.56;101788.63;106382;1263;23910;-53
2024/01/17 02:05:37;;;;;;;7.70;6.10;;;;;;;6.04;46.51;101790.87;106516;1265;24216;-53
2024/01/17 02:08:06;;;;;;;6.50;5.00;;;;;;;6.05;46.43;101794.67;106424;1263;25348;-52
2024/01/17 02:10:33;;;;;;;6.60;5.60;;;;;;;6.03;46.30;101790.51;106514;1267;22527;-53
2024/01/17 02:12:59;;;;;;;6.80;6.00;;;;;;;6.02;46.36;101792.39;105963;1266;1003866;-54
2024/01/17 02:15:27;;;;;;;6.50;5.80;;;;;;;6.01;46.28;101788.23;105961;1261;1002738;-52
2024/01/17 02:17:54;;;;;;;8.50;6.60;;;;;;;5.98;46.50;101787.87;106680;1259;22646;-52
2024/01/17 02:20:21;;;;;;;6.80;5.60;;;;;;;5.96;46.51;101780.26;106832;1259;22529;-52
2024/01/17 02:22:48;;;;;;;7.30;6.00;;;;;;;5.95;46.64;101781.96;106840;1260;25363;-55
2024/01/17 02:25:15;;;;;;;7.70;6.30;;;;;;;5.96;46.72;101779.21;106764;1260;25376;-52
2024/01/17 02:27:42;;;;;;;9.80;6.40;;;;;;;5.97;46.81;101775.95;105978;1260;1003669;-52
2024/01/17 02:30:10;;;;;;;7.50;6.30;;;;;;;5.98;46.73;101770.80;106728;1260;25338;-51
2024/01/17 02:32:38;;;;;;;6.80;6.10;;;;;;;5.99;46.63;101765.98;105973;1256;1003313;-53
2024/01/17 02:35:05;;;;;;;7.70;5.90;;;;;;;5.99;46.46;101763.59;106501;1261;24249;-51
2024/01/17 02:37:32;;;;;;;8.00;5.70;;;;;;;5.99;46.52;101754.29;105864;1261;1003604;-52
2024/01/17 02:40:00;;;;;;;7.00;5.60;;;;;;;5.98;46.49;101753.92;106327;1259;25339;-52
2024/01/17 02:42:27;;;;;;;6.10;5.40;;;;;;;5.97;46.53;101749.77;105674;1260;1002511;-51
2024/01/17 02:44:54;;;;;;;7.20;5.40;;;;;;;5.95;46.45;101751.81;106397;1261;25366;-53
2024/01/17 02:47:20;;;;;;;6.60;5.50;;;;;;;5.92;46.42;101747.82;106377;1258;22526;-55
2024/01/17 02:49:47;;;;;;;5.60;5.00;;;;;;;5.88;46.50;101745.02;106617;1268;25363;-53
2024/01/17 02:52:15;;;;;;;6.40;5.50;;;;;;;5.89;46.39;101748.81;106533;1275;25366;-52
2024/01/17 02:54:42;;;;;;;6.40;5.60;;;;;;;5.90;46.38;101752.96;105776;1275;1003499;-51
2024/01/17 02:57:09;;;;;;;7.00;5.50;;;;;;;5.92;46.03;101760.04;106347;1273;25376;-52
2024/01/17 02:59:36;;;;;;;8.20;5.50;;;;;;;5.90;45.94;101764.33;106751;1260;25479;-50
2024/01/17 03:02:04;;;;;;;6.10;5.00;;;;;;;5.89;45.89;101765.34;106839;1261;25356;-52
2024/01/17 03:04:31;;;;;;;6.30;5.10;;;;;;;5.85;45.74;101766.68;106882;1260;24208;-52
2024/01/17 03:06:59;;;;;;;7.80;5.10;;;;;;;5.82;45.65;101767.11;105670;1273;1003443;-52
2024/01/17 03:09:25;;;;;;;6.70;5.30;;;;;;;5.79;45.87;101762.08;106748;1269;25552;-52
2024/01/17 03:11:53;;;;;;;7.10;5.70;;;;;;;5.77;46.09;101759.11;106729;1257;23334;-53
2024/01/17 03:14:19;;;;;;;6.50;5.20;;;;;;;5.76;46.44;101761.18;106410;1271;24443;-52
2024/01/17 03:16:47;;;;;;;7.10;5.60;;;;;;;5.76;46.28;101759.45;106779;1268;25367;-52
2024/01/17 03:19:14;;;;;;;6.80;5.30;;;;;;;5.76;46.53;101754.63;106744;1259;25471;-53
2024/01/17 03:21:50;;;;;;;6.80;5.20;;;;;;;5.77;46.77;101753.44;106771;1256;22533;-52
2024/01/17 03:24:17;;;;;;;6.00;5.40;;;;;;;5.77;46.83;101756.88;105955;1261;1003300;-52
2024/01/17 03:26:44;;;;;;;8.20;6.10;;;;;;;5.77;46.72;101765.31;106859;1266;25370;-52
2024/01/17 03:29:11;;;;;;;6.10;5.10;;;;;;;5.76;46.62;101769.60;106799;1259;25507;-52
2024/01/17 03:31:38;;;;;;;7.20;5.70;;;;;;;5.74;46.86;101771.31;106619;1272;25357;-52
2024/01/17 03:34:05;;;;;;;7.70;5.60;;;;;;;5.74;47.24;101772.16;106742;1259;24219;-52
2024/01/17 03:36:33;;;;;;;10.10;7.00;;;;;;;5.74;47.38;101768.73;106598;1260;25522;-52
2024/01/17 03:39:00;;;;;;;9.00;6.90;;;;;;;5.73;47.23;101774.90;106670;1259;25475;-52
2024/01/17 03:41:27;;;;;;;10.30;7.20;;;;;;;5.72;47.17;101781.59;106688;1261;25366;-52
2024/01/17 03:43:57;;;;;;;9.40;7.00;;;;;;;5.69;46.99;101785.86;106055;1259;1003492;-52
2024/01/17 03:46:24;;;;;;;11.20;7.20;;;;;;;5.69;46.69;101791.36;106625;1275;22528;-50
2024/01/17 03:48:50;;;;;;;9.20;7.50;;;;;;;5.65;46.42;101792.70;106760;1256;25341;-52
2024/01/17 03:51:18;;;;;;;10.20;8.20;;;;;;;5.62;46.43;101794.71;106936;1259;25370;-52
2024/01/17 03:53:46;;;;;;;9.60;8.40;;;;;;;5.59;46.56;101792.09;106724;1260;25369;-52
2024/01/17 03:56:14;;;;;;;11.70;8.80;;;;;;;5.57;46.40;101793.08;106750;1256;23869;-52
2024/01/17 03:58:41;;;;;;;9.20;7.80;;;;;;;5.55;46.49;101792.36;106292;1275;25393;-52
2024/01/17 04:01:09;;;;;;;8.20;7.00;;;;;;;5.54;46.94;101791.15;106374;1260;23892;-53
2024/01/17 04:03:36;;;;;;;9.00;6.80;;;;;;;5.55;47.02;101794.42;105564;1271;1003750;-51
2024/01/17 04:06:04;;;;;;;8.40;7.10;;;;;;;5.52;47.00;101797.14;106737;1259;25386;-51
2024/01/17 04:08:31;;;;;;;8.00;6.60;;;;;;;5.49;46.96;101799.15;106462;1268;22549;-51
2024/01/17 04:10:58;;;;;;;7.60;6.30;;;;;;;5.48;47.04;101796.56;106376;1264;25363;-51
2024/01/17 04:13:25;;;;;;;7.50;6.00;;;;;;;5.48;46.97;101802.41;106011;1262;1002960;-53
2024/01/17 04:15:52;;;;;;;7.50;5.50;;;;;;;5.45;46.92;101807.00;106656;1267;25535;-53
2024/01/17 04:18:20;;;;;;;8.00;5.40;;;;;;;5.43;46.95;101812.48;106371;1259;24227;-52
2024/01/17 04:20:47;;;;;;;6.30;5.30;;;;;;;5.45;47.02;101813.55;106716;1257;24201;-53
2024/01/17 04:23:15;;;;;;;8.60;6.20;;;;;;;5.50;46.90;101815.52;106313;1257;478068;-50
2024/01/17 04:25:42;;;;;;;7.70;6.00;;;;;;;5.55;46.88;101814.23;106771;1256;25342;-51
2024/01/17 04:28:09;;;;;;;8.70;6.50;;;;;;;5.59;46.87;101815.84;106127;1260;1003666;-51
2024/01/17 04:30:37;;;;;;;8.30;6.40;;;;;;;5.63;46.75;101819.16;106767;1259;25419;-51
2024/01/17 04:33:05;;;;;;;7.70;6.40;;;;;;;5.65;46.74;101815.92;106673;1264;25348;-51
2024/01/17 04:35:32;;;;;;;6.60;5.90;;;;;;;5.65;46.67;101819.73;106433;1261;22535;-51
2024/01/17 04:37:59;;;;;;;6.10;5.50;;;;;;;5.66;46.57;101826.96;105648;1262;1003282;-52
2024/01/17 04:40:26;;;;;;;6.10;5.00;;;;;;;5.66;46.39;101827.83;106348;1267;25463;-52
2024/01/17 04:42:54;;;;;;;5.30;4.70;;;;;;;5.68;46.54;101829.40;106357;1265;25366;-52
2024/01/17 04:45:21;;;;;;;7.50;5.30;;;;;;;5.71;46.34;101827.20;106810;1267;25452;-51
2024/01/17 04:47:48;;;;;;;7.20;5.40;;;;;;;5.73;46.33;101825.85;106721;1262;25357;-53
2024/01/17 04:50:16;;;;;;;7.20;5.50;;;;;;;5.73;46.17;101826.38;106375;1260;1003828;-52
2024/01/17 04:52:43;;;;;;;8.40;6.20;;;;;;;5.71;46.20;101829.96;106020;1259;1003188;-52
2024/01/17 04:55:10;;;;;;;8.20;6.60;;;;;;;5.69;46.43;101825.64;106744;1259;25421;-52
2024/01/17 04:57:37;;;;;;;6.30;5.50;;;;;;;5.64;46.30;101825.91;106643;1261;25338;-51
2024/01/17 05:00:05;;;;;;;6.30;5.00;;;;;;;5.58;46.43;101828.39;105911;1261;1003136;-51
2024/01/17 05:02:33;;;;;;;7.50;5.40;;;;;;;5.52;46.44;101836.39;106346;1269;24388;-51
2024/01/17 05:05:00;;;;;;;7.10;5.30;;;;;;;5.49;46.70;101839.08;106781;1256;25418;-51
2024/01/17 05:07:28;;;;;;;6.30;5.60;;;;;;;5.48;46.48;101842.17;106706;1262;25346;-51
2024/01/17 05:09:55;;;;;;;6.60;5.30;;;;;;;5.49;46.21;101840.96;106735;1259;25437;-51
2024/01/17 05:12:22;;;;;;;5.80;5.20;;;;;;;5.48;46.40;101841.48;106457;1275;25328;-50
2024/01/17 05:14:49;;;;;;;6.40;5.30;;;;;;;5.46;46.60;101844.54;105988;1262;1003481;-51
2024/01/17 05:17:16;;;;;;;8.70;5.60;;;;;;;5.43;46.63;101849.48;106302;1262;25412;-53
2024/01/17 05:19:44;;;;;;;7.70;6.00;;;;;;;5.39;46.65;101852.70;106790;1261;25366;-50
2024/01/17 05:22:14;;;;;;;6.30;5.50;;;;;;;5.36;46.26;101846.96;106813;1272;25343;-51
2024/01/17 05:24:41;;;;;;;7.30;5.80;;;;;;;5.34;46.18;101852.41;106746;1262;25339;-51
2024/01/17 05:27:08;;;;;;;6.90;5.40;;;;;;;5.33;46.29;101855.31;106042;1272;1003089;-52
2024/01/17 05:29:42;;;;;;;7.60;6.30;;;;;;;5.33;46.43;101861.17;106768;1260;25338;-53
2024/01/17 05:32:11;;;;;;;8.10;5.90;;;;;;;5.32;46.65;101863.05;105792;1275;1003668;-52
2024/01/17 05:34:38;;;;;;;7.90;6.00;;;;;;;5.31;46.56;101868.88;106443;1263;25367;-52
2024/01/17 05:37:06;;;;;;;7.40;5.50;;;;;;;5.28;46.61;101869.53;105778;1262;1002783;-52
2024/01/17 05:39:33;;;;;;;7.90;5.80;;;;;;;5.26;46.41;101870.34;105992;1267;25342;-53
2024/01/17 05:42:00;;;;;;;8.30;5.60;;;;;;;5.24;46.34;101868.23;106291;1260;25366;-52
2024/01/17 05:44:27;;;;;;;7.20;6.10;;;;;;;5.22;46.19;101872.69;106720;1259;25402;-52
2024/01/17 05:46:55;;;;;;;7.30;6.10;;;;;;;5.21;46.47;101882.81;106773;1256;22760;-52
2024/01/17 05:49:22;;;;;;;7.50;5.90;;;;;;;5.20;46.76;101890.20;106764;1263;25479;-53
2024/01/17 05:51:50;;;;;;;11.00;6.90;;;;;;;5.21;46.89;101898.30;106539;1272;22539;-52
2024/01/17 05:54:16;;;;;;;10.30;7.80;;;;;;;5.23;46.67;101898.33;106422;1271;22533;-51
2024/01/17 05:56:44;;;;;;;13.40;9.30;;;;;;;5.25;46.51;101899.39;105662;1271;1005716;-52
2024/01/17 05:59:13;;;;;;;26.50;17.90;;;;;;;5.26;46.32;101908.52;106770;1259;25829;-52
2024/01/17 06:01:40;;;;;;;38.10;25.00;;;;;;;5.26;46.12;101909.73;106755;1260;25419;-52
2024/01/17 06:04:07;;;;;;;32.10;20.80;;;;;;;5.26;45.76;101910.42;106739;1262;25356;-52
2024/01/17 06:06:34;;;;;;;15.30;11.10;;;;;;;5.26;45.77;101912.32;106126;1260;1003385;-53
2024/01/17 06:09:01;;;;;;;12.40;8.70;;;;;;;5.28;45.58;101912.36;106717;1256;22526;-52
2024/01/17 06:11:28;;;;;;;11.40;8.10;;;;;;;5.32;45.61;101911.05;106053;1256;1002951;-54
2024/01/17 06:13:56;;;;;;;8.80;7.30;;;;;;;5.36;45.52;101902.54;106709;1260;25373;-50
2024/01/17 06:16:23;;;;;;;10.30;7.70;;;;;;;5.44;45.64;101904.56;106474;1273;25366;-51
2024/01/17 06:18:51;;;;;;;10.70;8.50;;;;;;;5.54;45.77;101904.05;106804;1259;25392;-51
2024/01/17 06:21:19;;;;;;;15.30;10.20;;;;;;;5.66;45.62;101905.80;106773;1257;25338;-51
2024/01/17 06:23:46;;;;;;;18.80;13.20;;;;;;;5.80;45.31;101908.79;106139;1256;1003639;-51
2024/01/17 06:26:13;;;;;;;17.90;12.30;;;;;;;5.95;45.01;101910.61;106586;1264;25339;-51
2024/01/17 06:28:41;;;;;;;17.80;12.60;;;;;;;6.11;44.67;101914.64;106791;1267;25408;-51
2024/01/17 06:31:08;;;;;;;16.10;10.20;;;;;;;6.25;44.71;101915.54;106564;1263;24249;-51
2024/01/17 06:33:36;;;;;;;48.20;26.40;;;;;;;6.37;44.17;101917.42;106745;1261;24195;-51
2024/01/17 06:36:05;;;;;;;86.80;43.10;;;;;;;6.48;43.81;101917.06;105789;1275;1003773;-51
2024/01/17 06:38:32;;;;;;;82.90;39.60;;;;;;;6.57;43.38;101924.95;105602;1268;1003546;-51
2024/01/17 06:40:59;;;;;;;37.80;20.30;;;;;;;6.63;43.39;101926.21;105559;1262;1002960;-51
2024/01/17 06:43:26;;;;;;;22.10;12.90;;;;;;;6.66;43.20;101925.92;106755;1259;25409;-51
2024/01/17 06:45:54;;;;;;;15.10;9.90;;;;;;;6.67;43.01;101919.39;106766;1262;25348;-51
2024/01/17 06:48:21;;;;;;;11.10;7.10;;;;;;;6.65;43.12;101919.88;105759;1271;1003588;-52
2024/01/17 06:50:48;;;;;;;9.10;7.00;;;;;;;6.64;43.05;101921.40;106030;1260;1003163;-51
2024/01/17 06:53:17;;;;;;;8.30;6.80;;;;;;;6.62;43.15;101917.23;106729;1262;25366;-51
2024/01/17 06:55:44;;;;;;;8.60;6.40;;;;;;;6.63;43.28;101920.35;106354;1262;25332;-51
2024/01/17 06:58:12;;;;;;;9.40;6.60;;;;;;;6.66;43.36;101923.15;106427;1261;25419;-52
2024/01/17 07:00:39;;;;;;;12.40;10.00;;;;;;;6.70;43.20;101926.48;106773;1260;22806;-52
2024/01/17 07:03:06;;;;;;;12.20;8.50;;;;;;;6.72;43.18;101935.48;106710;1260;27007;-51
2024/01/17 07:05:33;;;;;;;9.50;7.60;;;;;;;6.74;43.29;101938.95;106381;1265;25326;-51
2024/01/17 07:08:00;;;;;;;10.90;8.30;;;;;;;6.75;43.28;101943.45;106432;1266;25357;-51
2024/01/17 07:10:28;;;;;;;12.40;9.60;;;;;;;6.77;43.32;101941.41;106665;1259;25332;-51
2024/01/17 07:12:56;;;;;;;53.00;33.40;;;;;;;6.79;43.18;101940.73;105924;1262;1002950;-51
2024/01/17 07:15:23;;;;;;;77.30;45.30;;;;;;;6.80;43.13;101945.59;105906;1259;1003222;-52
2024/01/17 07:17:50;;;;;;;44.40;26.70;;;;;;;6.80;43.25;101946.45;105899;1262;1003539;-51
2024/01/17 07:20:17;;;;;;;19.50;13.80;;;;;;;6.81;43.35;101942.48;106575;1269;25419;-51
2024/01/17 07:22:45;;;;;;;14.40;9.40;;;;;;;6.81;43.36;101936.63;106386;1263;25360;-51
2024/01/17 07:25:15;;;;;;;8.10;6.80;;;;;;;6.81;43.52;101934.56;106533;1262;25376;-52
2024/01/17 07:27:44;;;;;;;17.20;10.90;;;;;;;6.84;43.64;101933.56;106634;1262;24373;-51
2024/01/17 07:30:12;;;;;;;86.10;43.90;;;;;;;6.87;43.83;101934.64;106605;1269;22550;-51
2024/01/17 07:32:39;;;;;;;195.30;120.30;;;;;;;6.92;43.88;101941.42;105900;1259;1003637;-51
2024/01/17 07:35:07;;;;;;;77.90;53.40;;;;;;;6.97;43.80;101938.89;105992;1262;1002665;-50
2024/01/17 07:37:35;;;;;;;34.50;25.70;;;;;;;7.03;43.87;101938.09;106729;1262;25386;-50
2024/01/17 07:40:04;;;;;;;27.50;15.30;;;;;;;7.06;43.72;101939.70;106050;1262;1003711;-50
2024/01/17 07:42:32;;;;;;;12.70;11.20;;;;;;;7.09;43.75;101938.17;106803;1256;22777;-51
2024/01/17 07:44:59;;;;;;;12.90;9.80;;;;;;;7.12;43.71;101939.42;105919;1260;1003367;-51
2024/01/17 07:47:27;;;;;;;14.50;9.60;;;;;;;7.13;43.66;101938.39;106770;1272;25419;-51
2024/01/17 07:49:59;;;;;;;10.80;8.00;;;;;;;7.14;43.58;101937.54;106733;1273;22536;-52
2024/01/17 07:52:26;;;;;;;10.00;7.60;;;;;;;7.16;43.53;101938.77;106472;1262;22529;-51
2024/01/17 07:54:53;;;;;;;8.20;6.90;;;;;;;7.19;43.51;101942.59;106755;1263;25364;-51
2024/01/17 07:57:20;;;;;;;7.20;5.60;;;;;;;7.21;43.66;101948.31;106763;1262;25339;-53
2024/01/17 07:59:48;;;;;;;6.20;5.60;;;;;;;7.26;43.50;101948.89;106032;1259;1003450;-50
2024/01/17 08:02:17;;;;;;;6.70;5.90;;;;;;;7.32;43.45;101952.73;105840;1275;1002962;-52
2024/01/17 08:04:44;;;;;;;9.40;6.40;;;;;;;7.37;43.25;101947.62;106855;1272;22539;-52
2024/01/17 08:07:11;;;;;;;6.10;5.30;;;;;;;7.42;43.30;101951.48;106837;1272;25424;-52
2024/01/17 08:09:39;;;;;;;7.60;5.80;;;;;;;7.48;42.91;101946.16;106751;1279;24268;-52
2024/01/17 08:12:08;;;;;;;7.30;5.70;;;;;;;7.53;42.88;101942.77;106743;1262;25338;-52
2024/01/17 08:14:35;;;;;;;8.00;5.70;;;;;;;7.57;42.52;101941.09;106390;1264;24242;-51
2024/01/17 08:17:02;;;;;;;9.30;7.90;;;;;;;7.60;42.28;101943.54;106344;1262;25379;-51
2024/01/17 08:19:29;;;;;;;10.70;8.50;;;;;;;7.63;41.97;101945.46;105639;1262;1003024;-52
2024/01/17 08:21:57;;;;;;;11.30;10.00;;;;;;;7.65;41.98;101947.73;106731;1262;25335;-53
2024/01/17 08:24:24;;;;;;;8.50;6.90;;;;;;;7.68;41.99;101947.23;106395;1279;25419;-53
2024/01/17 08:26:52;;;;;;;7.10;6.00;;;;;;;7.70;41.83;101948.80;106813;1272;25430;-50
2024/01/17 08:29:19;;;;;;;6.20;4.70;;;;;;;7.72;41.88;101953.32;106088;1268;1002612;-53
2024/01/17 08:31:46;;;;;;;6.40;5.10;;;;;;;7.75;41.86;101955.07;106824;1259;25367;-53
2024/01/17 08:34:13;;;;;;;6.30;5.10;;;;;;;7.77;41.80;101955.42;105773;1275;1003056;-53
2024/01/17 08:36:42;;;;;;;7.20;5.30;;;;;;;7.79;41.67;101959.41;106471;1275;24230;-53
2024/01/17 08:39:10;;;;;;;5.30;4.60;;;;;;;7.81;41.32;101959.09;106390;1273;25407;-52
2024/01/17 08:41:40;;;;;;;6.00;4.70;;;;;;;7.83;41.33;101963.77;106441;1272;25431;-53
2024/01/17 08:44:07;;;;;;;5.80;4.70;;;;;;;7.87;41.27;101964.33;106623;1276;25345;-52
2024/01/17 08:46:44;;;;;;;4.90;4.40;;;;;;;7.92;41.36;101966.45;106784;1272;25491;-52
2024/01/17 08:49:13;;;;;;;5.80;4.40;;;;;;;7.99;41.25;101959.95;106532;1275;25486;-52
2024/01/17 08:51:40;;;;;;;5.00;4.40;;;;;;;8.04;41.16;101958.77;106851;1272;25367;-52
2024/01/17 08:54:07;;;;;;;5.70;4.10;;;;;;;8.09;41.08;101953.45;106767;1261;25491;-52
2024/01/17 08:56:34;;;;;;;5.10;4.40;;;;;;;8.14;41.13;101951.92;106027;1273;1003088;-52
2024/01/17 08:59:02;;;;;;;6.00;5.40;;;;;;;8.18;40.93;101947.13;106836;1272;25415;-52
2024/01/17 09:01:29;;;;;;;6.40;5.10;;;;;;;8.23;41.04;101948.20;105974;1272;1003487;-52
2024/01/17 09:03:56;;;;;;;4.90;4.40;;;;;;;8.28;41.03;101950.67;106556;1263;23257;-52
2024/01/17 09:06:23;;;;;;;8.50;6.70;;;;;;;8.32;40.84;101947.23;106745;1275;25338;-52
2024/01/17 09:08:50;;;;;;;6.10;5.50;;;;;;;8.35;40.65;101944.14;106703;1260;25412;-52
2024/01/17 09:11:18;;;;;;;5.60;4.50;;;;;;;8.39;40.52;101938.14;106731;1262;25325;-52
2024/01/17 09:13:46;;;;;;;5.60;3.80;;;;;;;8.42;40.41;101935.90;105940;1275;1003578;-52
2024/01/17 09:16:13;;;;;;;4.80;4.00;;;;;;;8.45;40.54;101933.14;106842;1272;24397;-52
2024/01/17 09:18:40;;;;;;;4.50;4.00;;;;;;;8.47;40.38;101925.21;106742;1272;23132;-52
2024/01/17 09:21:07;;;;;;;5.10;4.30;;;;;;;8.43;40.60;101927.27;106112;1264;1003373;-52
2024/01/17 09:23:35;;;;;;;4.50;4.10;;;;;;;8.40;40.73;101923.96;106722;1259;25356;-52
2024/01/17 09:26:02;;;;;;;5.20;4.20;;;;;;;8.53;40.27;101925.23;105872;1265;1015894;-52
2024/01/17 09:28:32;;;;;;;6.10;4.30;;;;;;;8.61;40.27;101922.34;106409;1263;25339;-52
2024/01/17 09:30:59;;;;;;;4.40;3.70;;;;;;;8.66;40.22;101918.89;106024;1272;1002861;-52
2024/01/17 09:33:27;;;;;;;4.20;3.80;;;;;;;8.70;39.90;101911.48;106547;1265;23283;-52
2024/01/17 09:35:56;;;;;;;4.90;4.30;;;;;;;8.74;39.75;101908.89;106770;1272;25552;-52
2024/01/17 09:38:29;;;;;;;6.90;6.20;;;;;;;8.78;39.75;101901.13;106663;1278;25583;-52
2024/01/17 09:40:57;;;;;;;7.70;6.80;;;;;;;8.82;39.87;101894.74;106550;1275;25402;-52
2024/01/17 09:43:24;;;;;;;7.50;5.40;;;;;;;8.86;39.58;101891.48;106876;1272;25418;-52
2024/01/17 09:45:54;;;;;;;6.30;5.10;;;;;;;8.91;39.55;101890.27;106664;1262;25330;-52
2024/01/17 09:48:21;;;;;;;4.80;4.20;;;;;;;8.95;39.21;101886.14;106028;1272;1003643;-52
2024/01/17 09:50:48;;;;;;;4.90;4.00;;;;;;;8.98;39.23;101881.64;106711;1272;25415;-52
2024/01/17 09:53:15;;;;;;;3.90;3.50;;;;;;;9.02;38.98;101879.23;105726;1273;1003076;-52
2024/01/17 09:55:42;;;;;;;3.80;3.20;;;;;;;9.06;38.81;101874.91;106475;1272;25366;-52
2024/01/17 09:58:09;;;;;;;4.70;4.00;;;;;;;9.11;38.75;101874.75;106610;1275;25418;-52
2024/01/17 10:00:37;;;;;;;4.20;3.80;;;;;;;9.16;38.34;101872.16;105385;1275;1003426;-54
2024/01/17 10:03:04;;;;;;;4.50;3.60;;;;;;;9.20;38.99;101868.88;106419;1275;25461;-52
2024/01/17 10:05:32;;;;;;;6.10;4.20;;;;;;;9.24;39.66;101863.35;106482;1275;23909;-52
2024/01/17 10:08:04;;;;;;;4.70;4.10;;;;;;;9.28;40.06;101862.66;105668;1278;1002326;-52
2024/01/17 10:10:31;;;;;;;5.20;3.90;;;;;;;9.32;40.30;101853.66;106412;1275;25380;-52
2024/01/17 10:12:58;;;;;;;4.60;4.00;;;;;;;9.35;40.60;101846.91;106425;1275;25485;-52
2024/01/17 10:15:27;;;;;;;4.50;4.10;;;;;;;9.39;40.30;101841.71;106235;1275;25574;-52
2024/01/17 10:17:54;;;;;;;5.90;4.70;;;;;;;9.43;40.26;101845.00;106370;1275;25425;-52
2024/01/17 10:20:22;;;;;;;5.40;4.70;;;;;;;9.46;40.01;101840.85;105742;1275;1014830;-52
2024/01/17 10:22:49;;;;;;;4.80;4.30;;;;;;;9.49;40.01;101837.73;106483;1276;25342;-53
2024/01/17 10:25:17;;;;;;;4.90;4.00;;;;;;;9.52;39.86;101833.58;105274;1282;1002865;-52
2024/01/17 10:27:48;;;;;;;5.20;4.20;;;;;;;9.55;40.12;101834.78;105606;1279;1002940;-52
2024/01/17 10:30:16;;;;;;;4.50;3.90;;;;;;;9.58;40.65;101831.85;106553;1278;25516;-53
2024/01/17 10:32:43;;;;;;;6.60;4.80;;;;;;;9.60;40.96;101831.14;106603;1275;24235;-52
2024/01/17 10:35:11;;;;;;;4.90;4.40;;;;;;;9.62;41.37;101825.94;106470;1278;25388;-53
2024/01/17 10:37:39;;;;;;;5.00;4.50;;;;;;;9.63;41.93;101824.20;106561;1278;25630;-50
2024/01/17 10:40:11;;;;;;;5.10;3.90;;;;;;;9.65;42.10;101821.96;106483;1278;25414;-52
2024/01/17 10:42:40;;;;;;;6.70;5.10;;;;;;;9.69;42.00;101823.00;106220;1273;25356;-52
2024/01/17 10:45:08;;;;;;;6.00;4.80;;;;;;;9.73;41.78;101824.55;106290;1276;25383;-52
2024/01/17 10:47:36;;;;;;;5.60;4.50;;;;;;;9.79;41.47;101819.34;106355;1272;22522;-52
2024/01/17 10:50:05;;;;;;;5.00;4.50;;;;;;;9.85;41.15;101816.73;106342;1272;22867;-52
2024/01/17 10:52:33;;;;;;;5.90;5.00;;;;;;;9.89;40.73;101818.64;106234;1278;24468;-52
2024/01/17 10:55:08;;;;;;;6.50;5.50;;;;;;;9.92;40.45;101818.09;106553;1259;25366;-51
2024/01/17 10:57:36;;;;;;;5.30;4.80;;;;;;;9.94;40.41;101819.67;106279;1275;24049;-52
2024/01/17 11:00:11;;;;;;;5.40;4.60;;;;;;;9.94;40.25;101813.06;106030;1272;1003209;-51
2024/01/17 11:02:40;;;;;;;5.40;4.70;;;;;;;9.95;40.31;101814.80;106725;1279;25367;-51
2024/01/17 11:05:10;;;;;;;5.50;4.20;;;;;;;9.95;40.30;101811.34;106090;1262;1003169;-52
2024/01/17 11:07:37;;;;;;;6.60;4.80;;;;;;;9.95;40.37;101806.48;105955;1279;1003552;-51
2024/01/17 11:10:05;;;;;;;5.60;5.00;;;;;;;9.94;40.30;101803.70;105992;1272;1002986;-51
2024/01/17 11:12:35;;;;;;;6.10;4.70;;;;;;;9.93;40.45;101802.16;106680;1275;22530;-53
2024/01/17 11:15:06;;;;;;;6.40;4.50;;;;;;;9.92;40.50;101801.29;106796;1272;22619;-53
2024/01/17 11:17:36;;;;;;;7.30;5.50;;;;;;;9.92;40.60;101798.69;106567;1279;22540;-51
2024/01/17 11:20:08;;;;;;;6.40;5.30;;;;;;;9.92;40.72;101793.14;106776;1262;25488;-51